createdAt,value
2017-11-16T00:00:22.892Z,0
2017-11-16T00:01:03.461Z,0
2017-11-16T00:01:44.050Z,0
2017-11-16T00:02:24.631Z,0
2017-11-16T00:03:05.236Z,0
2017-11-16T00:03:45.808Z,0
2017-11-16T00:04:26.359Z,0
2017-11-16T00:05:06.906Z,0
2017-11-16T00:05:47.472Z,0
2017-11-16T00:06:28.027Z,0
2017-11-16T00:07:08.651Z,0
2017-11-16T00:07:49.215Z,0
2017-11-16T00:08:29.815Z,0
2017-11-16T00:09:10.377Z,0
2017-11-16T00:10:01.592Z,0
2017-11-16T00:10:42.187Z,0
2017-11-16T00:11:22.805Z,0
2017-11-16T00:12:03.441Z,0
2017-11-16T00:12:44.035Z,0
2017-11-16T00:13:24.690Z,0
2017-11-16T00:14:05.261Z,0
2017-11-16T00:14:45.844Z,0
2017-11-16T00:15:26.436Z,0
2017-11-16T00:18:11.284Z,0
2017-11-16T00:18:51.835Z,0
2017-11-16T00:19:32.412Z,0
2017-11-16T00:20:12.990Z,0
2017-11-16T00:20:53.568Z,0
2017-11-16T00:21:34.179Z,0
2017-11-16T00:22:14.769Z,0
2017-11-16T00:22:55.378Z,0
2017-11-16T00:23:35.935Z,0
2017-11-16T00:25:48.727Z,0
2017-11-16T00:26:29.331Z,0
2017-11-16T00:27:09.909Z,0
2017-11-16T00:27:50.480Z,0
2017-11-16T00:28:31.065Z,0
2017-11-16T00:29:11.655Z,0
2017-11-16T00:31:44.876Z,0
2017-11-16T00:32:25.453Z,0
2017-11-16T00:33:06.025Z,0
2017-11-16T00:33:46.594Z,0
2017-11-16T00:34:27.289Z,0
2017-11-16T00:35:07.926Z,0
2017-11-16T00:35:48.505Z,0
2017-11-16T00:36:29.097Z,0
2017-11-16T00:37:09.712Z,0
2017-11-16T00:37:50.283Z,0
2017-11-16T00:38:30.848Z,0
2017-11-16T00:39:11.437Z,0
2017-11-16T00:39:52.004Z,0
2017-11-16T00:40:32.592Z,0
2017-11-16T00:41:13.170Z,0
2017-11-16T00:41:53.741Z,0
2017-11-16T00:42:34.323Z,0
2017-11-16T00:43:14.888Z,0
2017-11-16T00:43:55.463Z,0
2017-11-16T00:44:36.047Z,0
2017-11-16T00:45:16.598Z,0
2017-11-16T00:45:57.165Z,0
2017-11-16T00:46:37.742Z,0
2017-11-16T00:47:18.319Z,0
2017-11-16T00:47:58.903Z,0
2017-11-16T00:48:39.508Z,0
2017-11-16T00:49:20.174Z,0
2017-11-16T00:50:00.727Z,0
2017-11-16T00:50:41.288Z,0
2017-11-16T00:51:21.865Z,0
2017-11-16T00:52:02.432Z,0
2017-11-16T00:52:42.995Z,0
2017-11-16T00:53:23.556Z,0
2017-11-16T00:54:04.118Z,0
2017-11-16T00:54:44.701Z,0
2017-11-16T00:55:25.252Z,0
2017-11-16T00:56:05.823Z,0
2017-11-16T00:56:46.398Z,0
2017-11-16T00:57:26.978Z,0
2017-11-16T00:58:07.537Z,0
2017-11-16T00:58:48.116Z,0
2017-11-16T00:59:28.817Z,0
2017-11-16T01:00:09.445Z,0
2017-11-16T01:00:50.028Z,0
2017-11-16T01:01:30.657Z,0
2017-11-16T01:02:11.244Z,0
2017-11-16T01:02:51.802Z,0
2017-11-16T01:03:32.395Z,0
2017-11-16T01:04:12.996Z,0
2017-11-16T01:04:53.615Z,0
2017-11-16T01:05:34.212Z,0
2017-11-16T01:06:14.916Z,0
2017-11-16T01:06:55.481Z,0
2017-11-16T01:07:36.075Z,0
2017-11-16T01:08:16.670Z,0
2017-11-16T01:08:57.270Z,0
2017-11-16T01:09:37.854Z,0
2017-11-16T01:10:18.448Z,0
2017-11-16T01:10:59.042Z,0
2017-11-16T01:11:39.696Z,0
2017-11-16T01:12:20.244Z,0
2017-11-16T01:13:00.854Z,0
2017-11-16T01:13:41.465Z,0
2017-11-16T01:14:22.086Z,0
2017-11-16T01:15:02.688Z,0
2017-11-16T01:15:43.360Z,0
2017-11-16T01:16:23.922Z,0
2017-11-16T01:17:04.534Z,0
2017-11-16T01:17:45.135Z,0
2017-11-16T01:18:25.706Z,0
2017-11-16T01:19:06.301Z,0
2017-11-16T01:19:46.904Z,0
2017-11-16T01:20:27.506Z,0
2017-11-16T01:21:08.098Z,0
2017-11-16T01:21:48.700Z,0
2017-11-16T01:22:29.321Z,0
2017-11-16T01:23:09.927Z,0
2017-11-16T01:23:50.533Z,0
2017-11-16T01:24:31.151Z,0
2017-11-16T01:25:11.743Z,0
2017-11-16T01:25:52.346Z,0
2017-11-16T01:26:32.946Z,0
2017-11-16T01:27:13.574Z,0
2017-11-16T01:27:54.169Z,0
2017-11-16T01:28:34.792Z,0
2017-11-16T01:29:15.405Z,0
2017-11-16T01:29:55.998Z,0
2017-11-16T01:30:36.606Z,0
2017-11-16T01:31:17.214Z,0
2017-11-16T01:31:57.815Z,0
2017-11-16T01:32:38.398Z,0
2017-11-16T01:33:18.989Z,0
2017-11-16T01:33:59.600Z,0
2017-11-16T01:34:40.253Z,0
2017-11-16T01:35:20.825Z,0
2017-11-16T01:36:01.425Z,0
2017-11-16T01:36:42.008Z,0
2017-11-16T01:37:22.659Z,0
2017-11-16T01:38:03.222Z,0
2017-11-16T01:38:43.811Z,0
2017-11-16T01:39:24.421Z,0
2017-11-16T01:40:05.037Z,0
2017-11-16T01:40:45.633Z,0
2017-11-16T01:41:26.255Z,0
2017-11-16T01:42:06.815Z,0
2017-11-16T01:42:47.386Z,0
2017-11-16T01:43:27.988Z,0
2017-11-16T01:44:08.550Z,0
2017-11-16T01:44:49.180Z,0
2017-11-16T01:45:29.742Z,0
2017-11-16T01:46:10.331Z,0
2017-11-16T01:46:50.972Z,0
2017-11-16T01:47:31.505Z,0
2017-11-16T01:48:12.075Z,0
2017-11-16T01:48:52.678Z,0
2017-11-16T01:49:33.318Z,0
2017-11-16T01:50:13.919Z,0
2017-11-16T01:50:54.484Z,0
2017-11-16T01:51:35.053Z,0
2017-11-16T01:52:15.617Z,0
2017-11-16T01:52:56.188Z,0
2017-11-16T01:53:36.782Z,0
2017-11-16T01:54:17.355Z,0
2017-11-16T01:54:57.951Z,0
2017-11-16T01:55:38.532Z,0
2017-11-16T01:56:19.153Z,0
2017-11-16T01:56:59.760Z,0
2017-11-16T01:57:40.461Z,0
2017-11-16T01:58:21.000Z,0
2017-11-16T01:59:01.585Z,0
2017-11-16T01:59:42.227Z,0
2017-11-16T02:00:22.816Z,0
2017-11-16T02:01:03.374Z,0
2017-11-16T02:01:43.960Z,0
2017-11-16T02:02:24.580Z,0
2017-11-16T02:03:05.145Z,0
2017-11-16T02:03:45.710Z,0
2017-11-16T02:04:26.294Z,0
2017-11-16T02:05:06.873Z,0
2017-11-16T02:05:47.540Z,0
2017-11-16T02:06:28.108Z,0
2017-11-16T02:07:08.679Z,0
2017-11-16T02:07:49.287Z,0
2017-11-16T02:08:29.920Z,0
2017-11-16T02:09:10.482Z,0
2017-11-16T02:09:51.074Z,0
2017-11-16T02:10:31.701Z,0
2017-11-16T02:11:12.265Z,0
2017-11-16T02:11:52.860Z,0
2017-11-16T02:12:33.452Z,0
2017-11-16T02:13:14.002Z,0
2017-11-16T02:13:54.550Z,0
2017-11-16T02:14:35.120Z,0
2017-11-16T02:15:15.687Z,0
2017-11-16T02:15:56.247Z,0
2017-11-16T02:16:37.281Z,0
2017-11-16T02:17:18.121Z,0
2017-11-16T02:17:58.692Z,0
2017-11-16T02:18:39.267Z,0
2017-11-16T02:19:19.864Z,0
2017-11-16T02:20:00.448Z,0
2017-11-16T02:20:41.043Z,0
2017-11-16T02:21:21.647Z,0
2017-11-16T02:22:02.235Z,0
2017-11-16T02:22:42.887Z,0
2017-11-16T02:23:23.516Z,0
2017-11-16T02:24:04.113Z,0
2017-11-16T02:24:44.679Z,0
2017-11-16T02:25:25.258Z,0
2017-11-16T02:26:05.823Z,0
2017-11-16T02:26:46.394Z,0
2017-11-16T02:27:27.006Z,0
2017-11-16T02:28:07.587Z,0
2017-11-16T02:28:48.195Z,0
2017-11-16T02:29:28.764Z,0
2017-11-16T02:30:09.343Z,0
2017-11-16T02:30:49.953Z,0
2017-11-16T02:31:30.689Z,0
2017-11-16T02:32:11.281Z,0
2017-11-16T02:32:51.870Z,0
2017-11-16T02:33:32.496Z,0
2017-11-16T02:34:13.090Z,0
2017-11-16T02:34:53.663Z,0
2017-11-16T02:35:34.339Z,0
2017-11-16T02:36:14.903Z,0
2017-11-16T02:36:55.485Z,0
2017-11-16T02:37:36.069Z,0
2017-11-16T02:38:16.647Z,0
2017-11-16T02:38:57.271Z,0
2017-11-16T02:39:37.804Z,0
2017-11-16T02:40:18.376Z,0
2017-11-16T02:40:58.959Z,0
2017-11-16T02:41:39.533Z,0
2017-11-16T02:42:20.136Z,0
2017-11-16T02:43:00.707Z,0
2017-11-16T02:43:41.294Z,0
2017-11-16T02:44:21.883Z,0
2017-11-16T02:45:02.466Z,0
2017-11-16T02:45:43.022Z,0
2017-11-16T02:46:23.601Z,0
2017-11-16T02:47:04.184Z,0
2017-11-16T02:47:44.772Z,0
2017-11-16T02:48:25.335Z,0
2017-11-16T02:49:05.934Z,0
2017-11-16T02:49:46.546Z,0
2017-11-16T02:50:27.144Z,0
2017-11-16T02:51:07.717Z,0
2017-11-16T02:51:48.286Z,0
2017-11-16T02:52:28.852Z,0
2017-11-16T02:53:09.424Z,0
2017-11-16T02:53:50.004Z,0
2017-11-16T02:54:30.573Z,0
2017-11-16T02:55:11.165Z,0
2017-11-16T02:55:51.783Z,0
2017-11-16T02:56:32.359Z,0
2017-11-16T02:57:12.951Z,0
2017-11-16T02:57:53.527Z,0
2017-11-16T02:58:34.091Z,0
2017-11-16T02:59:14.705Z,0
2017-11-16T02:59:55.277Z,0
2017-11-16T03:00:35.869Z,0
2017-11-16T03:01:16.476Z,0
2017-11-16T03:01:57.081Z,0
2017-11-16T03:02:37.656Z,0
2017-11-16T03:03:18.278Z,0
2017-11-16T03:03:58.869Z,0
2017-11-16T03:04:39.483Z,0
2017-11-16T03:05:20.046Z,0
2017-11-16T03:06:00.643Z,0
2017-11-16T03:06:41.216Z,0
2017-11-16T03:07:21.849Z,0
2017-11-16T03:08:02.476Z,0
2017-11-16T03:08:43.035Z,0
2017-11-16T03:09:23.624Z,0
2017-11-16T03:10:04.204Z,0
2017-11-16T03:10:44.798Z,0
2017-11-16T03:11:25.399Z,0
2017-11-16T03:12:05.963Z,0
2017-11-16T03:12:46.527Z,0
2017-11-16T03:13:27.095Z,0
2017-11-16T03:14:07.676Z,0
2017-11-16T03:14:48.304Z,0
2017-11-16T03:15:28.868Z,0
2017-11-16T03:16:09.472Z,0
2017-11-16T03:16:50.046Z,0
2017-11-16T03:17:30.627Z,0
2017-11-16T03:18:11.204Z,0
2017-11-16T03:18:51.795Z,0
2017-11-16T03:19:32.369Z,0
2017-11-16T03:20:12.957Z,0
2017-11-16T03:20:53.529Z,0
2017-11-16T03:21:34.116Z,0
2017-11-16T03:22:14.717Z,0
2017-11-16T03:22:55.284Z,0
2017-11-16T03:23:35.890Z,0
2017-11-16T03:24:16.454Z,0
2017-11-16T03:24:57.073Z,0
2017-11-16T03:25:37.694Z,0
2017-11-16T03:26:18.282Z,0
2017-11-16T03:26:58.869Z,0
2017-11-16T03:27:39.439Z,0
2017-11-16T03:28:20.024Z,0
2017-11-16T03:29:00.626Z,0
2017-11-16T03:29:41.220Z,0
2017-11-16T03:30:21.781Z,0
2017-11-16T03:31:02.355Z,0
2017-11-16T03:31:42.931Z,0
2017-11-16T03:32:23.531Z,0
2017-11-16T03:33:04.063Z,0
2017-11-16T03:33:44.662Z,0
2017-11-16T03:34:25.232Z,0
2017-11-16T03:35:05.809Z,0
2017-11-16T03:35:46.411Z,0
2017-11-16T03:36:26.984Z,0
2017-11-16T03:37:07.558Z,0
2017-11-16T03:37:48.145Z,0
2017-11-16T03:38:28.740Z,0
2017-11-16T03:39:09.328Z,0
2017-11-16T03:39:49.943Z,0
2017-11-16T03:40:30.498Z,0
2017-11-16T03:41:11.083Z,0
2017-11-16T03:41:51.663Z,0
2017-11-16T03:42:32.223Z,0
2017-11-16T03:43:12.812Z,0
2017-11-16T03:43:53.438Z,0
2017-11-16T03:44:34.024Z,0
2017-11-16T03:45:14.614Z,0
2017-11-16T03:45:55.217Z,0
2017-11-16T03:46:35.791Z,0
2017-11-16T03:47:16.359Z,0
2017-11-16T03:47:57.059Z,0
2017-11-16T03:48:37.688Z,0
2017-11-16T03:49:18.273Z,0
2017-11-16T03:49:58.858Z,0
2017-11-16T03:50:39.424Z,0
2017-11-16T03:51:19.987Z,0
2017-11-16T03:52:00.560Z,0
2017-11-16T03:52:41.138Z,0
2017-11-16T03:53:21.715Z,0
2017-11-16T03:54:02.279Z,0
2017-11-16T03:54:42.884Z,0
2017-11-16T03:55:23.480Z,0
2017-11-16T03:56:04.105Z,0
2017-11-16T03:56:44.666Z,0
2017-11-16T03:57:25.222Z,0
2017-11-16T03:58:05.809Z,0
2017-11-16T03:58:46.417Z,0
2017-11-16T03:59:26.960Z,0
2017-11-16T04:00:07.542Z,0
2017-11-16T04:00:48.128Z,0
2017-11-16T04:01:28.848Z,0
2017-11-16T04:02:09.395Z,0
2017-11-16T04:02:50.004Z,0
2017-11-16T04:03:30.607Z,0
2017-11-16T04:04:11.169Z,0
2017-11-16T04:04:51.823Z,0
2017-11-16T04:05:32.412Z,0
2017-11-16T04:06:13.055Z,0
2017-11-16T04:06:53.653Z,0
2017-11-16T04:07:34.298Z,0
2017-11-16T04:08:14.885Z,0
2017-11-16T04:08:55.475Z,0
2017-11-16T04:09:36.146Z,0
2017-11-16T04:10:16.686Z,0
2017-11-16T04:10:57.263Z,0
2017-11-16T04:11:37.843Z,0
2017-11-16T04:12:18.415Z,0
2017-11-16T04:12:58.982Z,0
2017-11-16T04:13:39.565Z,0
2017-11-16T04:14:20.166Z,0
2017-11-16T04:15:00.739Z,0
2017-11-16T04:15:41.305Z,0
2017-11-16T04:16:21.881Z,0
2017-11-16T04:17:02.494Z,0
2017-11-16T04:17:43.021Z,0
2017-11-16T04:18:23.629Z,0
2017-11-16T04:19:04.238Z,0
2017-11-16T04:19:44.791Z,0
2017-11-16T04:20:25.367Z,0
2017-11-16T04:21:05.939Z,0
2017-11-16T04:21:46.505Z,0
2017-11-16T04:22:27.070Z,0
2017-11-16T04:23:07.643Z,0
2017-11-16T04:23:48.203Z,0
2017-11-16T04:24:28.766Z,0
2017-11-16T04:25:09.363Z,0
2017-11-16T04:25:49.935Z,0
2017-11-16T04:26:30.503Z,0
2017-11-16T04:27:11.076Z,0
2017-11-16T04:27:51.652Z,0
2017-11-16T04:28:32.229Z,0
2017-11-16T04:29:12.808Z,0
2017-11-16T04:29:53.389Z,0
2017-11-16T04:30:33.991Z,0
2017-11-16T04:31:14.560Z,0
2017-11-16T04:31:55.139Z,0
2017-11-16T04:32:35.735Z,0
2017-11-16T04:33:16.304Z,0
2017-11-16T04:33:56.875Z,0
2017-11-16T04:34:37.444Z,0
2017-11-16T04:35:18.000Z,0
2017-11-16T04:35:58.604Z,0
2017-11-16T04:36:39.169Z,0
2017-11-16T04:37:19.737Z,0
2017-11-16T04:38:00.310Z,0
2017-11-16T04:38:40.889Z,0
2017-11-16T04:39:21.479Z,0
2017-11-16T04:40:02.047Z,0
2017-11-16T04:40:42.617Z,0
2017-11-16T04:41:23.193Z,0
2017-11-16T04:42:03.765Z,0
2017-11-16T04:42:44.335Z,0
2017-11-16T04:43:24.948Z,0
2017-11-16T04:44:05.569Z,0
2017-11-16T04:44:46.099Z,0
2017-11-16T04:45:26.685Z,0
2017-11-16T04:46:07.254Z,0
2017-11-16T04:46:47.910Z,0
2017-11-16T04:47:28.497Z,0
2017-11-16T04:48:09.073Z,0
2017-11-16T04:48:49.970Z,0
2017-11-16T04:49:30.601Z,0
2017-11-16T04:50:11.681Z,0
2017-11-16T04:50:52.296Z,0
2017-11-16T04:51:32.843Z,0
2017-11-16T04:52:13.471Z,0
2017-11-16T04:52:54.125Z,0
2017-11-16T04:53:34.717Z,0
2017-11-16T04:54:15.362Z,0
2017-11-16T04:54:55.965Z,0
2017-11-16T04:55:36.572Z,0
2017-11-16T04:56:17.169Z,0
2017-11-16T04:56:57.782Z,0
2017-11-16T04:57:38.357Z,0
2017-11-16T04:58:19.011Z,0
2017-11-16T04:58:59.641Z,0
2017-11-16T04:59:40.243Z,0
2017-11-16T05:00:20.873Z,0
2017-11-16T05:01:01.513Z,0
2017-11-16T05:01:42.153Z,0
2017-11-16T05:02:22.757Z,0
2017-11-16T05:03:03.343Z,0
2017-11-16T05:03:43.931Z,0
2017-11-16T05:04:24.541Z,0
2017-11-16T05:05:05.156Z,0
2017-11-16T05:05:45.737Z,0
2017-11-16T05:06:26.309Z,0
2017-11-16T05:07:06.886Z,0
2017-11-16T05:07:47.752Z,0
2017-11-16T05:08:28.364Z,0
2017-11-16T05:09:08.974Z,0
2017-11-16T05:09:49.581Z,0
2017-11-16T05:10:30.182Z,0
2017-11-16T05:11:10.759Z,0
2017-11-16T05:11:51.458Z,0
2017-11-16T05:12:32.016Z,0
2017-11-16T05:13:12.599Z,0
2017-11-16T05:13:53.173Z,0
2017-11-16T05:14:33.811Z,0
2017-11-16T05:15:14.381Z,0
2017-11-16T05:15:55.041Z,0
2017-11-16T05:16:35.617Z,0
2017-11-16T05:17:16.216Z,0
2017-11-16T05:17:56.812Z,0
2017-11-16T05:18:37.429Z,0
2017-11-16T05:19:17.995Z,0
2017-11-16T05:19:58.575Z,0
2017-11-16T05:20:39.151Z,0
2017-11-16T05:21:19.742Z,0
2017-11-16T05:22:00.349Z,0
2017-11-16T05:22:40.954Z,0
2017-11-16T05:23:21.549Z,0
2017-11-16T05:24:02.125Z,0
2017-11-16T05:24:42.705Z,0
2017-11-16T05:25:23.331Z,0
2017-11-16T05:26:03.912Z,0
2017-11-16T05:26:44.480Z,0
2017-11-16T05:27:25.079Z,0
2017-11-16T05:28:05.658Z,0
2017-11-16T05:28:46.223Z,0
2017-11-16T05:29:26.829Z,0
2017-11-16T05:30:07.392Z,0
2017-11-16T05:30:47.999Z,0
2017-11-16T05:31:28.639Z,0
2017-11-16T05:32:09.257Z,0
2017-11-16T05:32:49.838Z,0
2017-11-16T05:33:30.455Z,0
2017-11-16T05:34:11.040Z,0
2017-11-16T05:34:51.621Z,0
2017-11-16T05:35:32.191Z,0
2017-11-16T05:36:12.830Z,0
2017-11-16T05:36:53.338Z,0
2017-11-16T05:37:33.963Z,0
2017-11-16T05:38:14.507Z,0
2017-11-16T05:38:55.077Z,0
2017-11-16T05:39:35.720Z,0
2017-11-16T05:40:16.294Z,0
2017-11-16T05:40:56.868Z,0
2017-11-16T05:41:37.498Z,0
2017-11-16T05:42:18.077Z,0
2017-11-16T05:42:58.685Z,0
2017-11-16T05:43:39.335Z,0
2017-11-16T05:44:19.921Z,0
2017-11-16T05:45:00.508Z,0
2017-11-16T05:45:41.360Z,0
2017-11-16T05:46:21.968Z,0
2017-11-16T05:47:02.590Z,0
2017-11-16T05:47:43.159Z,0
2017-11-16T05:48:23.768Z,0
2017-11-16T05:49:04.357Z,0
2017-11-16T05:49:44.951Z,0
2017-11-16T05:50:25.552Z,0
2017-11-16T05:51:06.173Z,0
2017-11-16T05:51:46.750Z,0
2017-11-16T05:52:27.327Z,0
2017-11-16T05:53:07.927Z,0
2017-11-16T05:53:48.515Z,0
2017-11-16T05:54:29.086Z,0
2017-11-16T05:55:09.655Z,0
2017-11-16T05:55:50.246Z,0
2017-11-16T05:56:30.804Z,0
2017-11-16T05:57:11.389Z,0
2017-11-16T05:57:51.994Z,0
2017-11-16T05:58:32.982Z,0
2017-11-16T05:59:13.551Z,0
2017-11-16T05:59:54.172Z,0
2017-11-16T06:00:34.790Z,0
2017-11-16T06:01:15.394Z,0
2017-11-16T06:01:56.005Z,0
2017-11-16T06:02:36.576Z,0
2017-11-16T06:03:17.161Z,0
2017-11-16T06:03:57.761Z,0
2017-11-16T06:04:38.347Z,0
2017-11-16T06:05:18.937Z,0
2017-11-16T06:05:59.572Z,0
2017-11-16T06:06:40.227Z,0
2017-11-16T06:07:20.945Z,0
2017-11-16T06:08:01.513Z,0
2017-11-16T06:08:42.123Z,0
2017-11-16T06:09:22.697Z,0
2017-11-16T06:10:03.319Z,0
2017-11-16T06:10:43.914Z,0
2017-11-16T06:11:24.860Z,0
2017-11-16T06:12:05.709Z,0
2017-11-16T06:12:46.266Z,0
2017-11-16T06:13:27.322Z,0
2017-11-16T06:14:07.997Z,0
2017-11-16T06:14:49.237Z,0
2017-11-16T06:15:30.341Z,0
2017-11-16T06:16:11.131Z,0
2017-11-16T06:16:52.010Z,0
2017-11-16T06:17:32.716Z,0
2017-11-16T06:18:13.490Z,0
2017-11-16T06:18:54.185Z,0
2017-11-16T06:19:34.774Z,0
2017-11-16T06:20:15.422Z,0
2017-11-16T06:20:55.969Z,0
2017-11-16T06:21:36.633Z,0
2017-11-16T06:22:17.204Z,0
2017-11-16T06:22:57.801Z,0
2017-11-16T06:23:38.475Z,0
2017-11-16T06:24:19.060Z,0
2017-11-16T06:24:59.643Z,0
2017-11-16T06:25:40.320Z,0
2017-11-16T06:26:20.856Z,0
2017-11-16T06:27:01.454Z,0
2017-11-16T06:27:42.043Z,0
2017-11-16T06:28:22.608Z,0
2017-11-16T06:29:03.228Z,0
2017-11-16T06:29:43.795Z,0
2017-11-16T06:30:24.380Z,0
2017-11-16T06:31:04.984Z,0
2017-11-16T06:31:45.570Z,0
2017-11-16T06:32:26.186Z,0
2017-11-16T06:33:06.806Z,0
2017-11-16T06:33:47.401Z,0
2017-11-16T06:34:28.099Z,0
2017-11-16T06:35:09.041Z,0
2017-11-16T06:35:49.667Z,0
2017-11-16T06:36:30.273Z,0
2017-11-16T06:37:10.962Z,0
2017-11-16T06:37:51.555Z,0
2017-11-16T06:38:32.199Z,0
2017-11-16T06:39:12.822Z,0
2017-11-16T06:39:53.493Z,0
2017-11-16T06:40:34.452Z,0
2017-11-16T06:41:15.035Z,0
2017-11-16T06:41:55.665Z,0
2017-11-16T06:42:36.776Z,0
2017-11-16T06:43:17.660Z,0
2017-11-16T06:43:58.857Z,0
2017-11-16T06:44:39.924Z,0
2017-11-16T06:45:20.548Z,0
2017-11-16T06:46:01.253Z,0
2017-11-16T06:46:41.862Z,0
2017-11-16T06:47:22.474Z,0
2017-11-16T06:48:03.330Z,0
2017-11-16T06:48:44.039Z,0
2017-11-16T06:49:24.637Z,0
2017-11-16T06:50:05.228Z,0
2017-11-16T06:50:45.943Z,0
2017-11-16T06:51:26.633Z,0
2017-11-16T06:52:07.255Z,0
2017-11-16T06:52:47.861Z,0
2017-11-16T06:53:28.494Z,0
2017-11-16T06:54:09.075Z,0
2017-11-16T06:54:49.675Z,0
2017-11-16T06:55:30.323Z,0
2017-11-16T06:56:10.909Z,0
2017-11-16T06:56:51.494Z,0
2017-11-16T06:57:32.119Z,0
2017-11-16T06:58:12.712Z,0
2017-11-16T06:58:53.714Z,0
2017-11-16T06:59:34.307Z,0
2017-11-16T07:00:14.894Z,0
2017-11-16T07:00:55.523Z,0
2017-11-16T07:01:36.070Z,0
2017-11-16T07:02:16.646Z,0
2017-11-16T07:02:57.221Z,0
2017-11-16T07:03:37.842Z,0
2017-11-16T07:04:18.466Z,0
2017-11-16T07:04:59.050Z,0
2017-11-16T07:05:39.639Z,0
2017-11-16T07:06:20.212Z,0
2017-11-16T07:07:00.841Z,0
2017-11-16T07:07:41.391Z,0
2017-11-16T07:08:22.008Z,0
2017-11-16T07:09:02.618Z,0
2017-11-16T07:09:43.174Z,0
2017-11-16T07:10:23.766Z,0
2017-11-16T07:11:04.352Z,0
2017-11-16T07:11:44.989Z,0
2017-11-16T07:12:25.538Z,0
2017-11-16T07:13:06.122Z,5
2017-11-16T07:13:46.751Z,5
2017-11-16T07:14:27.396Z,5
2017-11-16T07:15:07.977Z,5
2017-11-16T07:15:48.584Z,5
2017-11-16T07:16:29.179Z,5
2017-11-16T07:17:09.770Z,5
2017-11-16T07:17:50.366Z,5
2017-11-16T07:18:30.957Z,5
2017-11-16T07:19:11.566Z,5
2017-11-16T07:19:52.150Z,5
2017-11-16T07:20:32.812Z,5
2017-11-16T07:21:13.399Z,5
2017-11-16T07:21:54.024Z,5
2017-11-16T07:22:34.629Z,5
2017-11-16T07:23:15.280Z,5
2017-11-16T07:23:55.852Z,5
2017-11-16T07:24:36.502Z,5
2017-11-16T07:25:17.072Z,5
2017-11-16T07:25:57.771Z,5
2017-11-16T07:26:38.560Z,5
2017-11-16T07:27:19.160Z,5
2017-11-16T07:27:59.777Z,5
2017-11-16T07:28:40.424Z,5
2017-11-16T07:29:21.051Z,5
2017-11-16T07:30:01.639Z,5
2017-11-16T07:30:42.208Z,5
2017-11-16T07:31:22.797Z,5
2017-11-16T07:32:03.416Z,5
2017-11-16T07:32:44.046Z,5
2017-11-16T07:33:24.695Z,5
2017-11-16T07:34:05.310Z,5
2017-11-16T07:34:45.938Z,5
2017-11-16T07:35:26.546Z,10
2017-11-16T07:36:07.101Z,10
2017-11-16T07:36:47.711Z,10
2017-11-16T07:37:28.329Z,10
2017-11-16T07:38:09.155Z,10
2017-11-16T07:38:49.769Z,10
2017-11-16T07:39:30.453Z,10
2017-11-16T07:40:11.038Z,10
2017-11-16T07:40:51.644Z,10
2017-11-16T07:41:32.229Z,10
2017-11-16T07:42:12.809Z,5
2017-11-16T07:42:53.397Z,5
2017-11-16T07:43:33.980Z,5
2017-11-16T07:44:14.590Z,10
2017-11-16T07:44:55.250Z,5
2017-11-16T07:45:35.829Z,10
2017-11-16T07:46:16.458Z,10
2017-11-16T07:46:57.040Z,10
2017-11-16T07:47:39.416Z,10
2017-11-16T07:48:21.522Z,10
2017-11-16T07:49:02.108Z,10
2017-11-16T07:49:42.769Z,10
2017-11-16T07:50:23.328Z,10
2017-11-16T07:51:03.919Z,10
2017-11-16T07:51:44.543Z,10
2017-11-16T07:52:25.141Z,10
2017-11-16T07:53:05.804Z,10
2017-11-16T07:53:46.445Z,5
2017-11-16T07:54:27.009Z,5
2017-11-16T07:55:07.590Z,5
2017-11-16T07:55:48.230Z,5
2017-11-16T07:56:28.854Z,5
2017-11-16T07:57:09.500Z,5
2017-11-16T07:57:50.058Z,5
2017-11-16T07:58:30.668Z,5
2017-11-16T07:59:11.249Z,5
2017-11-16T07:59:51.853Z,10
2017-11-16T08:00:32.472Z,10
2017-11-16T08:01:13.087Z,10
2017-11-16T08:01:53.689Z,10
2017-11-16T08:02:34.273Z,10
2017-11-16T08:03:14.870Z,10
2017-11-16T08:03:55.453Z,10
2017-11-16T08:04:36.057Z,15
2017-11-16T08:05:16.869Z,15
2017-11-16T08:05:57.354Z,10
2017-11-16T08:06:38.020Z,10
2017-11-16T08:07:18.616Z,10
2017-11-16T08:07:59.237Z,10
2017-11-16T08:08:39.847Z,10
2017-11-16T08:09:20.449Z,10
2017-11-16T08:10:01.037Z,10
2017-11-16T08:10:41.645Z,10
2017-11-16T08:11:22.280Z,10
2017-11-16T08:12:02.880Z,10
2017-11-16T08:12:43.455Z,10
2017-11-16T08:13:24.155Z,10
2017-11-16T08:14:04.756Z,15
2017-11-16T08:14:45.412Z,15
2017-11-16T08:15:26.051Z,15
2017-11-16T08:16:06.669Z,15
2017-11-16T08:16:47.294Z,15
2017-11-16T08:17:27.891Z,10
2017-11-16T08:18:08.724Z,10
2017-11-16T08:18:49.386Z,10
2017-11-16T08:19:30.038Z,10
2017-11-16T08:20:10.568Z,10
2017-11-16T08:20:51.178Z,10
2017-11-16T08:21:31.788Z,10
2017-11-16T08:22:12.375Z,10
2017-11-16T08:22:52.992Z,10
2017-11-16T08:23:33.602Z,10
2017-11-16T08:24:14.224Z,10
2017-11-16T08:24:54.831Z,10
2017-11-16T08:25:35.411Z,10
2017-11-16T08:26:16.063Z,10
2017-11-16T08:26:56.960Z,10
2017-11-16T08:27:37.867Z,10
2017-11-16T08:28:18.450Z,10
2017-11-16T08:28:59.082Z,10
2017-11-16T08:29:39.720Z,10
2017-11-16T08:30:20.316Z,10
2017-11-16T08:31:00.942Z,10
2017-11-16T08:31:41.544Z,10
2017-11-16T08:32:22.148Z,10
2017-11-16T08:33:02.810Z,10
2017-11-16T08:33:43.408Z,10
2017-11-16T08:34:24.003Z,10
2017-11-16T08:35:04.672Z,10
2017-11-16T08:35:45.233Z,10
2017-11-16T08:36:25.825Z,10
2017-11-16T08:37:06.450Z,10
2017-11-16T08:37:47.062Z,10
2017-11-16T08:38:27.673Z,10
2017-11-16T08:39:08.270Z,10
2017-11-16T08:39:48.926Z,10
2017-11-16T08:40:29.520Z,10
2017-11-16T08:41:10.139Z,10
2017-11-16T08:41:50.801Z,10
2017-11-16T08:42:31.362Z,10
2017-11-16T08:43:12.026Z,10
2017-11-16T08:43:52.590Z,10
2017-11-16T08:44:33.183Z,10
2017-11-16T08:45:13.759Z,10
2017-11-16T08:45:54.385Z,10
2017-11-16T08:46:35.002Z,10
2017-11-16T08:47:15.650Z,10
2017-11-16T08:47:56.215Z,10
2017-11-16T08:48:36.812Z,10
2017-11-16T08:49:17.446Z,10
2017-11-16T08:49:58.080Z,10
2017-11-16T08:50:38.736Z,10
2017-11-16T08:51:19.343Z,10
2017-11-16T08:51:59.956Z,10
2017-11-16T08:52:40.581Z,10
2017-11-16T08:53:21.205Z,10
2017-11-16T08:54:01.808Z,10
2017-11-16T08:54:42.464Z,10
2017-11-16T08:55:23.089Z,10
2017-11-16T08:56:03.743Z,10
2017-11-16T08:56:44.371Z,10
2017-11-16T08:57:24.993Z,10
2017-11-16T08:58:05.582Z,10
2017-11-16T08:58:46.192Z,10
2017-11-16T08:59:26.791Z,10
2017-11-16T09:00:07.389Z,10
2017-11-16T09:00:47.994Z,10
2017-11-16T09:01:28.581Z,10
2017-11-16T09:02:09.185Z,10
2017-11-16T09:02:49.843Z,10
2017-11-16T09:03:30.401Z,10
2017-11-16T09:04:10.988Z,10
2017-11-16T09:04:51.643Z,10
2017-11-16T09:05:32.258Z,10
2017-11-16T09:06:12.869Z,10
2017-11-16T09:06:53.471Z,10
2017-11-16T09:07:34.089Z,10
2017-11-16T09:08:14.685Z,10
2017-11-16T09:08:55.289Z,10
2017-11-16T09:09:35.898Z,10
2017-11-16T09:10:16.494Z,15
2017-11-16T09:10:57.100Z,10
2017-11-16T09:11:37.718Z,10
2017-11-16T09:12:18.327Z,10
2017-11-16T09:12:58.911Z,10
2017-11-16T09:13:39.528Z,10
2017-11-16T09:14:20.143Z,10
2017-11-16T09:15:00.757Z,10
2017-11-16T09:15:41.361Z,10
2017-11-16T09:16:21.968Z,15
2017-11-16T09:17:02.571Z,15
2017-11-16T09:17:43.161Z,15
2017-11-16T09:18:23.724Z,20
2017-11-16T09:19:04.418Z,20
2017-11-16T09:19:45.005Z,20
2017-11-16T09:20:25.575Z,25
2017-11-16T09:21:06.140Z,25
2017-11-16T09:21:46.713Z,25
2017-11-16T09:22:27.274Z,25
2017-11-16T09:23:07.871Z,25
2017-11-16T09:23:48.454Z,25
2017-11-16T09:24:29.032Z,25
2017-11-16T09:25:09.679Z,30
2017-11-16T09:25:50.262Z,30
2017-11-16T09:26:30.845Z,30
2017-11-16T09:27:11.459Z,35
2017-11-16T09:27:52.047Z,35
2017-11-16T09:28:32.638Z,35
2017-11-16T09:29:13.274Z,30
2017-11-16T09:29:53.853Z,35
2017-11-16T09:30:34.449Z,35
2017-11-16T09:31:15.044Z,35
2017-11-16T09:31:55.633Z,35
2017-11-16T09:32:36.205Z,40
2017-11-16T09:33:16.798Z,40
2017-11-16T09:33:57.384Z,45
2017-11-16T09:34:37.964Z,45
2017-11-16T09:35:18.579Z,45
2017-11-16T09:35:59.153Z,45
2017-11-16T09:36:39.725Z,45
2017-11-16T09:37:20.333Z,40
2017-11-16T09:38:00.901Z,45
2017-11-16T09:38:41.485Z,45
2017-11-16T09:39:22.082Z,45
2017-11-16T09:40:02.641Z,45
2017-11-16T09:40:43.213Z,45
2017-11-16T09:41:23.779Z,45
2017-11-16T09:42:04.363Z,45
2017-11-16T09:42:44.958Z,45
2017-11-16T09:43:25.533Z,45
2017-11-16T09:44:06.120Z,45
2017-11-16T09:44:46.709Z,45
2017-11-16T09:45:27.282Z,50
2017-11-16T09:46:07.880Z,50
2017-11-16T09:46:48.444Z,50
2017-11-16T09:47:29.029Z,55
2017-11-16T09:48:09.605Z,55
2017-11-16T09:48:50.168Z,55
2017-11-16T09:49:30.732Z,55
2017-11-16T09:50:11.335Z,50
2017-11-16T09:50:51.895Z,50
2017-11-16T09:51:32.467Z,45
2017-11-16T09:52:13.052Z,50
2017-11-16T09:52:53.645Z,50
2017-11-16T09:53:34.214Z,45
2017-11-16T09:54:14.797Z,45
2017-11-16T09:54:55.372Z,45
2017-11-16T09:55:35.964Z,45
2017-11-16T09:56:16.574Z,50
2017-11-16T09:56:57.158Z,55
2017-11-16T09:57:37.779Z,55
2017-11-16T09:58:18.345Z,55
2017-11-16T09:58:58.942Z,55
2017-11-16T09:59:39.588Z,55
2017-11-16T10:00:20.201Z,60
2017-11-16T10:01:00.779Z,65